»·PEaware :: FSLCD KSNA-KCRQ

FSLCD :: KSNA-KCRQ

FLIGHT INFORMATION

Flight Status: Arrived
Operator: Unknown
More flights by this operator :: More flights under this callsign
Pilot: Gopalakrishna Pillai Sulekha S. (22834)
Aircraft: ROBIN DR-400
(DR40)
More flights by this aircraft type
Origin: KSNA John Wayne-Orange Co
United States
Destination: KCRQ McClellan-Palomar
United States
More flights between these airports :: More routes between these airports
Route: +V23 OCN
File this flight plan on PilotEdge
Remarks: I2 RATING
Altitude:
(Current/Filed)
5,000ft
Speed:
(Current/Filed)
120kts
Departed: 05-Feb-19 08:23 AM
Arrived: 05-Feb-19 09:03 AM
Distance/Time
Traveled:
44nm/0:40
Distance/Time
To Go:
Arrived

Flight Plot

Page will automatically refresh every two minutes.


Map Options




Map Legend


Flown Route
Filed Route
Departure Airport
Arrival Airport
Navaid (VOR, NDB)
Fix

Horizontal Profiles

Position Reports

Time Latitude Longitude Heading Altitude Ground
Speed
05-Feb-19 08:11 33.666705 -117.871853 316 52ft 0kts
05-Feb-19 08:12 33.666705 -117.871853 316 52ft 0kts
05-Feb-19 08:13 33.666705 -117.871853 316 52ft 0kts
05-Feb-19 08:14 33.666705 -117.871853 316 52ft 0kts
05-Feb-19 08:15 33.666705 -117.871853 316 52ft 0kts
05-Feb-19 08:16 33.666705 -117.871853 316 52ft 0kts
05-Feb-19 08:17 33.668772 -117.871306 40 52ft 20kts
05-Feb-19 08:18 33.672670 -117.867764 31 49ft 15kts
05-Feb-19 08:19 33.676665 -117.865483 25 43ft 19kts
05-Feb-19 08:20 33.679967 -117.863658 310 39ft 0kts
05-Feb-19 08:21 33.679967 -117.863658 310 39ft 0kts
05-Feb-19 08:22 33.675377 -117.867161 204 123ft 89kts
05-Feb-19 08:23 33.650258 -117.875344 186 1489ft 96kts
05-Feb-19 08:24 33.623899 -117.880167 186 2917ft 97kts
05-Feb-19 08:25 33.597979 -117.886085 186 4358ft 94kts
05-Feb-19 08:26 33.570556 -117.891542 159 5048ft 100kts
05-Feb-19 08:27 33.563387 -117.865880 101 5054ft 81kts
05-Feb-19 08:28 33.559978 -117.839271 103 5054ft 80kts
05-Feb-19 08:29 33.555696 -117.811643 105 5060ft 96kts
05-Feb-19 08:30 33.547889 -117.779928 133 5053ft 99kts
05-Feb-19 08:31 33.528939 -117.755869 133 5054ft 99kts
05-Feb-19 08:32 33.510139 -117.731715 133 5054ft 99kts
05-Feb-19 08:33 33.491711 -117.707147 132 5054ft 99kts
05-Feb-19 08:34 33.473230 -117.682448 132 5054ft 99kts
05-Feb-19 08:35 33.453520 -117.659419 136 5054ft 99kts
05-Feb-19 08:36 33.433559 -117.636601 135 5054ft 99kts
05-Feb-19 08:37 33.413673 -117.613867 135 5053ft 96kts
05-Feb-19 08:38 33.395337 -117.592920 135 5053ft 88kts
05-Feb-19 08:39 33.377618 -117.572678 135 5054ft 88kts
05-Feb-19 08:40 33.360005 -117.552555 135 5052ft 85kts
05-Feb-19 08:41 33.343133 -117.533280 135 5053ft 83kts
05-Feb-19 08:42 33.326404 -117.514165 135 5053ft 83kts
05-Feb-19 08:43 33.309606 -117.494970 135 5053ft 83kts
05-Feb-19 08:44 33.292737 -117.475690 135 5053ft 83kts
05-Feb-19 08:45 33.275900 -117.456445 135 5053ft 83kts
05-Feb-19 08:46 33.259042 -117.437172 135 5053ft 83kts
05-Feb-19 08:47 33.242724 -117.417432 115 5052ft 84kts
05-Feb-19 08:48 33.234992 -117.389546 110 4818ft 100kts
05-Feb-19 08:49 33.225436 -117.357520 110 4091ft 99kts
05-Feb-19 08:50 33.217650 -117.332284 111 4051ft 69kts
05-Feb-19 08:51 33.211004 -117.310674 111 3767ft 83kts
05-Feb-19 08:52 33.201965 -117.282932 111 3063ft 83kts
05-Feb-19 08:53 33.193509 -117.257541 111 3058ft 92kts
05-Feb-19 08:54 33.183798 -117.228321 111 3055ft 95kts
05-Feb-19 08:55 33.174121 -117.199192 111 3054ft 91kts
05-Feb-19 08:56 33.165388 -117.172952 111 3054ft 82kts
05-Feb-19 08:57 33.147937 -117.172233 231 2646ft 69kts
05-Feb-19 08:58 33.140621 -117.196306 262 2333ft 101kts
05-Feb-19 08:59 33.136518 -117.226485 258 1513ft 87kts
05-Feb-19 09:00 33.132510 -117.252656 258 768ft 72kts
05-Feb-19 09:01 33.129299 -117.273581 259 310ft 55kts
05-Feb-19 09:02 33.127914 -117.279484 228 308ft 0kts
05-Feb-19 09:03 33.127770 -117.279603 186 308ft 5kts
05-Feb-19 09:04 33.127492 -117.277447 134 308ft 8kts
05-Feb-19 09:05 33.126241 -117.276736 161 308ft 0kts

Navigation Log

Ident Type
Flight plan parsing failed, navigation log unavailable